createdAt,value
2022-11-29T00:01:12.050Z,20.10
2022-11-29T00:06:32.280Z,21.90
2022-11-29T00:09:06.708Z,21.42
2022-11-29T00:17:53.346Z,19.50
2022-11-29T00:20:23.234Z,20.27
2022-11-29T00:22:59.901Z,21.40
2022-11-29T00:25:40.499Z,21.27
2022-11-29T00:28:13.556Z,21.27
2022-11-29T00:30:41.616Z,20.50
2022-11-29T00:33:08.816Z,20.67
2022-11-29T00:35:37.897Z,21.50
2022-11-29T00:38:10.032Z,23.40
2022-11-29T00:40:39.226Z,23.90
2022-11-29T00:43:08.704Z,23.60
2022-11-29T00:45:38.144Z,22.90
2022-11-29T00:48:08.023Z,22.25
2022-11-29T00:50:35.541Z,19.65
2022-11-29T00:53:02.767Z,18.80
2022-11-29T00:55:33.237Z,18.17
2022-11-29T00:58:08.241Z,18.85
2022-11-29T01:00:56.063Z,19.50
2022-11-29T01:03:25.969Z,16.55
2022-11-29T01:06:04.958Z,19.73
2022-11-29T01:08:35.453Z,18.02
2022-11-29T01:11:08.259Z,18.45
2022-11-29T01:13:49.001Z,17.63
2022-11-29T01:16:27.106Z,16.45
2022-11-29T01:18:59.963Z,17.63
2022-11-29T01:21:31.842Z,17.00
2022-11-29T01:24:03.611Z,16.05
2022-11-29T01:26:34.583Z,17.15
2022-11-29T01:29:07.261Z,16.20
2022-11-29T01:31:49.278Z,16.35
2022-11-29T01:34:19.936Z,15.15
2022-11-29T01:36:55.843Z,16.75
2022-11-29T01:39:23.286Z,17.02
2022-11-29T01:42:02.376Z,16.55
2022-11-29T01:44:33.592Z,16.90
2022-11-29T01:47:05.951Z,17.10
2022-11-29T01:49:46.526Z,17.05
2022-11-29T01:52:33.113Z,15.35
2022-11-29T01:55:06.865Z,15.60
2022-11-29T01:57:35.265Z,16.15
2022-11-29T02:00:12.431Z,18.48
2022-11-29T02:03:07.021Z,17.65
2022-11-29T02:05:35.085Z,17.45
2022-11-29T02:08:02.931Z,18.27
2022-11-29T02:11:14.894Z,18.85
2022-11-29T02:14:28.152Z,19.08
2022-11-29T02:17:11.056Z,18.27
2022-11-29T02:20:06.826Z,18.38
2022-11-29T02:23:11.142Z,18.98
2022-11-29T02:26:08.576Z,17.98
2022-11-29T02:29:03.357Z,18.63
2022-11-29T02:32:10.322Z,18.08
2022-11-29T02:35:34.979Z,18.75
2022-11-29T02:38:11.181Z,18.50
2022-11-29T02:41:03.525Z,18.50
2022-11-29T02:43:50.769Z,18.30
2022-11-29T02:46:38.373Z,20.65
2022-11-29T02:49:34.234Z,19.17
2022-11-29T02:52:19.912Z,18.02
2022-11-29T02:55:29.970Z,16.35
2022-11-29T03:00:33.206Z,15.82
2022-11-29T03:03:28.412Z,18.63
2022-11-29T03:06:33.488Z,19.23
2022-11-29T03:09:14.414Z,16.77
2022-11-29T03:12:03.633Z,20.17
2022-11-29T03:15:10.665Z,17.88
2022-11-29T03:18:02.683Z,16.67
2022-11-29T03:20:48.161Z,18.20
2022-11-29T03:23:53.744Z,19.05
2022-11-29T03:26:44.256Z,19.00
2022-11-29T03:30:08.822Z,17.08
2022-11-29T03:33:01.928Z,14.55
2022-11-29T03:35:48.240Z,15.70
2022-11-29T03:38:43.785Z,16.02
2022-11-29T03:41:31.871Z,15.02
2022-11-29T03:44:18.073Z,14.65
2022-11-29T03:47:03.716Z,14.50
2022-11-29T03:50:14.733Z,14.93
2022-11-29T03:52:55.604Z,15.10
2022-11-29T03:55:55.523Z,14.37
2022-11-29T03:59:10.802Z,14.63
2022-11-29T04:02:12.507Z,15.30
2022-11-29T04:04:45.537Z,14.68
2022-11-29T04:08:01.090Z,15.38
2022-11-29T04:10:47.836Z,16.05
2022-11-29T04:13:36.817Z,16.25
2022-11-29T04:16:26.279Z,14.82
2022-11-29T04:19:42.521Z,16.10
2022-11-29T04:22:44.260Z,17.33
2022-11-29T04:26:07.005Z,17.35
2022-11-29T04:29:08.154Z,17.35
2022-11-29T04:32:05.681Z,17.40
2022-11-29T04:35:29.371Z,16.23
2022-11-29T04:38:14.744Z,16.08
2022-11-29T04:41:07.425Z,17.25
2022-11-29T04:44:00.336Z,16.17
2022-11-29T04:47:05.795Z,16.48
2022-11-29T04:50:15.339Z,15.85
2022-11-29T04:53:13.302Z,16.25
2022-11-29T04:55:57.064Z,15.93
2022-11-29T04:58:39.866Z,18.95
2022-11-29T05:01:32.536Z,17.45
2022-11-29T05:04:23.020Z,16.00
2022-11-29T05:07:30.014Z,17.77
2022-11-29T05:10:34.744Z,16.08
2022-11-29T05:13:23.697Z,16.13
2022-11-29T05:16:16.686Z,15.45
2022-11-29T05:19:40.318Z,16.60
2022-11-29T05:22:45.877Z,17.35
2022-11-29T05:25:40.713Z,17.10
2022-11-29T05:32:27.991Z,17.23
2022-11-29T05:35:31.983Z,16.73
2022-11-29T05:38:34.326Z,17.63
2022-11-29T05:41:36.838Z,15.85
2022-11-29T05:44:20.055Z,16.65
2022-11-29T05:47:41.215Z,20.15
2022-11-29T05:54:08.549Z,14.05
2022-11-29T05:57:20.245Z,18.88
2022-11-29T06:00:14.981Z,19.02
2022-11-29T06:03:13.323Z,17.15
2022-11-29T06:05:47.717Z,14.95
2022-11-29T06:09:08.119Z,15.20
2022-11-29T06:12:02.528Z,15.60
2022-11-29T06:15:28.281Z,16.60
2022-11-29T06:18:18.994Z,15.27
2022-11-29T06:21:00.001Z,17.85
2022-11-29T06:24:02.748Z,17.27
2022-11-29T06:27:40.978Z,19.63
2022-11-29T06:31:14.428Z,19.65
2022-11-29T06:34:13.530Z,17.98
2022-11-29T06:37:28.300Z,16.50
2022-11-29T06:40:08.931Z,16.48
2022-11-29T06:42:43.105Z,18.17
2022-11-29T06:45:29.800Z,19.77
2022-11-29T06:48:15.766Z,16.25
2022-11-29T06:52:17.097Z,15.18
2022-11-29T06:55:20.059Z,15.63
2022-11-29T06:58:43.449Z,15.20
2022-11-29T07:02:06.597Z,14.65
2022-11-29T07:05:12.833Z,15.55
2022-11-29T07:07:50.071Z,15.43
2022-11-29T07:11:01.853Z,16.00
2022-11-29T07:13:56.006Z,17.00
2022-11-29T07:16:46.415Z,16.88
2022-11-29T07:19:42.036Z,16.00
2022-11-29T07:22:32.425Z,14.88
2022-11-29T07:25:44.460Z,17.10
2022-11-29T07:32:14.101Z,15.93
2022-11-29T07:35:42.558Z,16.90
2022-11-29T07:39:26.390Z,15.67
2022-11-29T07:42:12.110Z,15.85
2022-11-29T07:45:12.554Z,18.42
2022-11-29T07:47:56.901Z,15.55
2022-11-29T07:50:29.349Z,16.90
2022-11-29T07:53:12.166Z,17.35
2022-11-29T07:55:50.452Z,18.63
2022-11-29T07:58:33.448Z,18.58
2022-11-29T08:01:07.106Z,19.63
2022-11-29T08:03:35.994Z,20.25
2022-11-29T08:06:14.028Z,19.50
2022-11-29T08:08:50.164Z,20.05
2022-11-29T08:11:31.236Z,22.23
2022-11-29T08:14:11.185Z,21.05
2022-11-29T08:16:48.823Z,20.83
2022-11-29T08:19:51.139Z,20.67
2022-11-29T08:22:36.014Z,20.25
2022-11-29T08:25:05.767Z,21.55
2022-11-29T08:27:38.504Z,21.70
2022-11-29T08:30:20.651Z,22.33
2022-11-29T08:33:08.947Z,23.30
2022-11-29T08:35:42.449Z,21.20
2022-11-29T08:38:12.547Z,22.67
2022-11-29T08:40:51.430Z,20.38
2022-11-29T08:43:32.379Z,21.27
2022-11-29T08:46:08.217Z,26.13
2022-11-29T08:48:37.954Z,21.27
2022-11-29T08:51:08.458Z,21.23
2022-11-29T08:53:52.117Z,23.42
2022-11-29T08:57:09.994Z,22.65
2022-11-29T08:59:16.224Z,24.20
2022-11-29T09:02:19.917Z,23.13
2022-11-29T09:04:47.333Z,21.73
2022-11-29T09:07:25.519Z,23.45
2022-11-29T09:10:08.662Z,24.63
2022-11-29T09:12:40.257Z,23.43
2022-11-29T09:15:10.320Z,21.92
2022-11-29T09:17:37.803Z,24.08
2022-11-29T09:20:11.191Z,23.42
2022-11-29T09:22:39.371Z,25.75
2022-11-29T09:25:16.665Z,22.42
2022-11-29T09:27:49.678Z,24.25
2022-11-29T09:30:40.760Z,22.70
2022-11-29T09:33:13.731Z,23.88
2022-11-29T09:35:45.499Z,22.77
2022-11-29T09:38:13.956Z,21.33
2022-11-29T09:40:57.620Z,19.55
2022-11-29T09:43:50.668Z,21.10
2022-11-29T09:46:42.108Z,21.08
2022-11-29T09:49:30.723Z,20.48
2022-11-29T09:52:28.129Z,19.65
2022-11-29T09:55:35.895Z,18.42
2022-11-29T09:58:16.859Z,17.60
2022-11-29T10:03:52.192Z,16.45
2022-11-29T10:06:36.903Z,17.38
2022-11-29T10:09:19.691Z,17.77
2022-11-29T10:12:30.519Z,15.70
2022-11-29T10:15:18.010Z,16.23
2022-11-29T10:18:26.068Z,15.27
2022-11-29T10:21:15.397Z,16.10
2022-11-29T10:23:58.039Z,14.63
2022-11-29T10:26:29.292Z,13.05
2022-11-29T10:29:02.160Z,13.20
2022-11-29T10:31:36.188Z,13.48
2022-11-29T10:34:24.539Z,15.15
2022-11-29T10:37:07.672Z,13.13
2022-11-29T10:39:46.805Z,14.13
2022-11-29T10:42:51.413Z,14.82
2022-11-29T10:45:40.470Z,14.95
2022-11-29T10:48:15.835Z,16.08
2022-11-29T10:50:48.817Z,16.35
2022-11-29T10:53:25.030Z,15.18
2022-11-29T10:56:01.635Z,15.45
2022-11-29T10:58:36.491Z,18.13
2022-11-29T11:01:14.095Z,17.27
2022-11-29T11:03:51.510Z,18.10
2022-11-29T11:06:46.082Z,17.35
2022-11-29T11:09:42.774Z,16.70
2022-11-29T11:12:16.762Z,17.27
2022-11-29T11:14:53.766Z,18.33
2022-11-29T11:17:33.417Z,17.42
2022-11-29T11:20:11.206Z,20.15
2022-11-29T11:22:59.461Z,17.48
2022-11-29T11:25:51.677Z,17.80
2022-11-29T11:28:43.216Z,15.10
2022-11-29T11:31:11.943Z,16.02
2022-11-29T11:33:42.310Z,15.65
2022-11-29T11:36:27.450Z,16.30
2022-11-29T11:39:19.662Z,16.65
2022-11-29T11:42:10.130Z,18.45
2022-11-29T11:45:04.755Z,17.75
2022-11-29T11:47:45.382Z,18.90
2022-11-29T11:50:59.360Z,18.85
2022-11-29T11:53:44.231Z,16.50
2022-11-29T11:56:26.022Z,16.60
2022-11-29T11:59:01.220Z,17.42
2022-11-29T12:01:39.442Z,17.60
2022-11-29T12:04:16.058Z,18.67
2022-11-29T12:06:58.746Z,17.75
2022-11-29T12:09:45.036Z,17.55
2022-11-29T12:12:25.492Z,19.10
2022-11-29T12:15:08.247Z,18.65
2022-11-29T12:17:44.077Z,19.25
2022-11-29T12:20:31.496Z,17.45
2022-11-29T12:23:18.913Z,21.60
2022-11-29T12:26:04.953Z,19.50
2022-11-29T12:28:40.446Z,22.63
2022-11-29T12:31:35.304Z,22.55
2022-11-29T12:35:16.091Z,21.77
2022-11-29T12:38:26.176Z,20.15
2022-11-29T12:41:32.860Z,21.33
2022-11-29T12:49:35.442Z,20.45
2022-11-29T12:52:29.092Z,20.13
2022-11-29T12:55:08.485Z,19.40
2022-11-29T12:57:47.001Z,21.20
2022-11-29T13:01:06.774Z,22.80
2022-11-29T13:08:10.530Z,20.17
2022-11-29T13:10:57.513Z,20.33
2022-11-29T13:16:47.580Z,18.13
2022-11-29T13:19:26.278Z,18.10
2022-11-29T13:22:43.107Z,17.80
2022-11-29T13:25:15.718Z,18.80
2022-11-29T13:28:41.465Z,19.10
2022-11-29T13:31:34.696Z,19.83
2022-11-29T13:34:23.328Z,21.02
2022-11-29T13:36:55.942Z,23.38
2022-11-29T13:39:30.010Z,23.17
2022-11-29T13:42:34.558Z,21.88
2022-11-29T13:45:29.632Z,23.75
2022-11-29T13:48:04.879Z,25.13
2022-11-29T13:50:50.077Z,24.25
2022-11-29T13:54:53.200Z,25.10
2022-11-29T13:56:50.732Z,23.45
2022-11-29T13:59:36.492Z,22.58
2022-11-29T14:02:33.009Z,24.30
2022-11-29T14:05:08.088Z,23.67
2022-11-29T14:07:40.367Z,23.80
2022-11-29T14:10:29.359Z,24.17
2022-11-29T14:13:00.138Z,24.65
2022-11-29T14:15:33.887Z,23.38
2022-11-29T14:18:30.564Z,24.90
2022-11-29T14:21:01.217Z,24.63
2022-11-29T14:23:36.846Z,26.73
2022-11-29T14:26:34.014Z,25.70
2022-11-29T14:31:55.953Z,25.63
2022-11-29T14:34:48.859Z,27.60
2022-11-29T14:37:54.340Z,27.58
2022-11-29T14:40:41.765Z,26.45
2022-11-29T14:43:25.051Z,26.42
2022-11-29T14:46:17.017Z,26.02
2022-11-29T14:51:37.498Z,24.77
2022-11-29T14:54:34.964Z,24.17
2022-11-29T14:57:43.616Z,25.38
2022-11-29T15:00:30.863Z,24.95
2022-11-29T15:03:33.168Z,25.58
2022-11-29T15:06:44.078Z,27.90
2022-11-29T15:09:29.118Z,25.38
2022-11-29T15:12:20.147Z,26.27
2022-11-29T15:15:14.631Z,25.25
2022-11-29T15:18:14.465Z,25.17
2022-11-29T15:21:17.487Z,26.35
2022-11-29T15:24:03.133Z,24.30
2022-11-29T15:26:40.095Z,23.00
2022-11-29T15:29:21.833Z,24.52
2022-11-29T15:31:58.363Z,24.20
2022-11-29T15:34:47.848Z,23.42
2022-11-29T15:37:37.589Z,23.50
2022-11-29T15:40:17.688Z,24.08
2022-11-29T15:43:02.029Z,24.15
2022-11-29T15:46:00.049Z,22.67
2022-11-29T15:48:36.841Z,21.67
2022-11-29T15:51:22.636Z,21.70
2022-11-29T15:54:17.930Z,21.08
2022-11-29T15:57:06.271Z,20.63
2022-11-29T15:59:51.160Z,19.15
2022-11-29T16:02:37.890Z,37.15
2022-11-29T16:05:37.965Z,22.27
2022-11-29T16:08:35.622Z,22.45
2022-11-29T16:11:27.985Z,24.38
2022-11-29T16:14:27.492Z,21.13
2022-11-29T16:20:25.677Z,22.05
2022-11-29T16:23:13.344Z,23.00
2022-11-29T16:26:22.435Z,25.17
2022-11-29T16:28:59.922Z,23.88
2022-11-29T16:31:34.924Z,27.30
2022-11-29T16:34:35.051Z,22.30
2022-11-29T16:40:30.113Z,23.60
2022-11-29T16:43:35.074Z,24.88
2022-11-29T16:46:43.084Z,35.45
2022-11-29T16:49:53.232Z,23.73
2022-11-29T16:52:36.807Z,27.73
2022-11-29T16:55:17.809Z,24.90
2022-11-29T16:57:52.576Z,24.15
2022-11-29T17:00:34.314Z,23.42
2022-11-29T17:03:09.091Z,25.33
2022-11-29T17:06:01.223Z,25.83
2022-11-29T17:08:40.249Z,24.40
2022-11-29T17:11:23.104Z,25.00
2022-11-29T17:14:06.761Z,26.92
2022-11-29T17:19:36.030Z,26.58
2022-11-29T17:22:47.903Z,24.85
2022-11-29T17:25:26.795Z,25.13
2022-11-29T17:28:16.233Z,23.52
2022-11-29T17:31:02.028Z,25.55
2022-11-29T17:33:41.265Z,25.02
2022-11-29T17:36:22.843Z,24.63
2022-11-29T17:39:15.690Z,38.50
2022-11-29T17:42:08.645Z,36.50
2022-11-29T17:45:05.265Z,25.40
2022-11-29T17:50:41.178Z,22.60
2022-11-29T17:56:27.081Z,25.13
2022-11-29T17:59:14.729Z,25.45
2022-11-29T18:02:39.999Z,22.85
2022-11-29T18:05:30.167Z,24.83
2022-11-29T18:08:08.035Z,24.50
2022-11-29T18:10:39.921Z,24.95
2022-11-29T18:13:26.650Z,25.10
2022-11-29T18:16:13.384Z,24.20
2022-11-29T18:19:07.790Z,23.98
2022-11-29T18:21:42.224Z,26.00
2022-11-29T18:24:16.012Z,25.08
2022-11-29T18:26:59.534Z,22.90
2022-11-29T18:29:38.895Z,23.63
2022-11-29T18:32:27.310Z,26.25
2022-11-29T18:35:13.432Z,26.48
2022-11-29T18:38:13.972Z,23.58
2022-11-29T18:41:02.717Z,20.63
2022-11-29T18:47:00.614Z,21.58
2022-11-29T18:50:15.806Z,23.63
2022-11-29T18:53:06.508Z,23.50
2022-11-29T18:55:49.937Z,24.35
2022-11-29T18:59:08.522Z,25.90
2022-11-29T19:08:21.475Z,23.88
2022-11-29T19:11:36.770Z,25.80
2022-11-29T19:14:20.002Z,24.48
2022-11-29T19:17:29.701Z,23.70
2022-11-29T19:21:25.326Z,25.88
2022-11-29T19:24:17.413Z,23.88
2022-11-29T19:27:26.516Z,26.00
2022-11-29T19:30:14.039Z,26.05
2022-11-29T19:35:44.315Z,25.40
2022-11-29T19:38:48.776Z,24.35
2022-11-29T19:41:55.569Z,25.25
2022-11-29T19:48:09.281Z,25.13
2022-11-29T20:02:01.841Z,21.65
2022-11-29T20:15:39.783Z,24.40
2022-11-29T20:18:14.113Z,26.02
2022-11-29T20:21:13.207Z,21.92
2022-11-29T20:24:20.272Z,25.63
2022-11-29T20:30:44.522Z,26.13
2022-11-29T20:33:46.106Z,24.70
2022-11-29T20:41:12.670Z,22.92
2022-11-29T20:52:17.967Z,24.90
2022-11-29T20:56:16.528Z,21.05
2022-11-29T20:59:19.263Z,24.10
2022-11-29T21:06:34.723Z,24.15
2022-11-29T21:10:32.373Z,25.30
2022-11-29T21:18:09.209Z,27.65
2022-11-29T21:25:11.580Z,22.75
2022-11-29T21:28:46.452Z,22.50
2022-11-29T21:31:48.751Z,22.92
2022-11-29T21:35:20.796Z,22.80
2022-11-29T21:37:49.665Z,22.55
2022-11-29T21:40:46.013Z,23.92
2022-11-29T21:44:05.350Z,22.33
2022-11-29T21:47:03.757Z,23.83
2022-11-29T21:50:02.735Z,25.95
2022-11-29T21:52:48.752Z,22.63
2022-11-29T21:55:54.823Z,24.05
2022-11-29T22:04:34.537Z,24.63
2022-11-29T22:07:11.032Z,23.42
2022-11-29T22:10:17.033Z,24.20
2022-11-29T22:12:59.914Z,25.45
2022-11-29T22:18:35.634Z,22.80
2022-11-29T22:21:35.991Z,27.38
2022-11-29T22:24:16.812Z,28.10
2022-11-29T22:27:13.774Z,25.73
2022-11-29T22:41:39.662Z,24.65
2022-11-29T22:45:34.928Z,24.80
2022-11-29T22:56:16.114Z,22.70
2022-11-29T22:56:27.905Z,23.02
2022-11-29T23:02:47.064Z,25.25
2022-11-29T23:22:39.294Z,26.27
2022-11-29T23:29:14.907Z,23.90
2022-11-29T23:32:06.044Z,24.85
2022-11-29T23:34:37.454Z,24.00
2022-11-29T23:38:15.686Z,25.77
2022-11-29T23:49:50.898Z,24.92
2022-11-29T23:53:19.507Z,24.67
